sensor_id;sensor_type;location;lat;lon;timestamp;P1;durP1;ratioP1;P2;durP2;ratioP2
15697;SDS011;7949;48.726;9.102;2023-02-15T00:01:25;52.17;;;24.20;;
15697;SDS011;7949;48.726;9.102;2023-02-15T00:03:52;48.87;;;23.70;;
15697;SDS011;7949;48.726;9.102;2023-02-15T00:06:20;51.03;;;23.27;;
15697;SDS011;7949;48.726;9.102;2023-02-15T00:08:48;53.47;;;22.47;;
15697;SDS011;7949;48.726;9.102;2023-02-15T00:11:15;50.17;;;23.67;;
15697;SDS011;7949;48.726;9.102;2023-02-15T00:14:04;46.83;;;21.87;;
15697;SDS011;7949;48.726;9.102;2023-02-15T00:16:32;48.53;;;23.20;;
15697;SDS011;7949;48.726;9.102;2023-02-15T00:18:59;53.23;;;23.93;;
15697;SDS011;7949;48.726;9.102;2023-02-15T00:21:28;49.13;;;23.43;;
15697;SDS011;7949;48.726;9.102;2023-02-15T00:23:56;47.03;;;23.33;;
15697;SDS011;7949;48.726;9.102;2023-02-15T00:26:23;46.60;;;23.27;;
15697;SDS011;7949;48.726;9.102;2023-02-15T00:28:50;49.27;;;22.33;;
15697;SDS011;7949;48.726;9.102;2023-02-15T00:31:17;45.77;;;21.90;;
15697;SDS011;7949;48.726;9.102;2023-02-15T00:33:44;44.43;;;22.93;;
15697;SDS011;7949;48.726;9.102;2023-02-15T00:36:11;49.80;;;22.57;;
15697;SDS011;7949;48.726;9.102;2023-02-15T00:38:40;48.57;;;22.50;;
15697;SDS011;7949;48.726;9.102;2023-02-15T00:41:07;48.57;;;22.43;;
15697;SDS011;7949;48.726;9.102;2023-02-15T00:43:34;48.17;;;21.87;;
15697;SDS011;7949;48.726;9.102;2023-02-15T00:46:02;43.77;;;20.80;;
15697;SDS011;7949;48.726;9.102;2023-02-15T00:48:33;43.07;;;20.80;;
15697;SDS011;7949;48.726;9.102;2023-02-15T00:51:01;45.40;;;21.80;;
15697;SDS011;7949;48.726;9.102;2023-02-15T00:53:28;47.00;;;20.97;;
15697;SDS011;7949;48.726;9.102;2023-02-15T00:55:57;45.17;;;20.90;;
15697;SDS011;7949;48.726;9.102;2023-02-15T00:58:24;45.23;;;21.57;;
15697;SDS011;7949;48.726;9.102;2023-02-15T01:00:51;44.90;;;21.30;;
15697;SDS011;7949;48.726;9.102;2023-02-15T01:03:19;42.50;;;20.37;;
15697;SDS011;7949;48.726;9.102;2023-02-15T01:05:47;46.67;;;20.07;;
15697;SDS011;7949;48.726;9.102;2023-02-15T01:08:17;43.90;;;20.60;;
15697;SDS011;7949;48.726;9.102;2023-02-15T01:10:43;41.97;;;21.37;;
15697;SDS011;7949;48.726;9.102;2023-02-15T01:13:13;41.30;;;21.37;;
15697;SDS011;7949;48.726;9.102;2023-02-15T01:15:41;42.77;;;21.17;;
15697;SDS011;7949;48.726;9.102;2023-02-15T01:18:08;42.23;;;20.83;;
15697;SDS011;7949;48.726;9.102;2023-02-15T01:20:36;42.27;;;21.20;;
15697;SDS011;7949;48.726;9.102;2023-02-15T01:23:06;45.57;;;21.17;;
15697;SDS011;7949;48.726;9.102;2023-02-15T01:25:34;42.20;;;20.47;;
15697;SDS011;7949;48.726;9.102;2023-02-15T01:28:02;40.57;;;20.00;;
15697;SDS011;7949;48.726;9.102;2023-02-15T01:30:31;40.30;;;18.77;;
15697;SDS011;7949;48.726;9.102;2023-02-15T01:32:58;40.70;;;19.37;;
15697;SDS011;7949;48.726;9.102;2023-02-15T01:35:26;40.67;;;19.30;;
15697;SDS011;7949;48.726;9.102;2023-02-15T01:37:53;38.90;;;19.50;;
15697;SDS011;7949;48.726;9.102;2023-02-15T01:40:20;42.87;;;18.83;;
15697;SDS011;7949;48.726;9.102;2023-02-15T01:42:49;41.87;;;19.47;;
15697;SDS011;7949;48.726;9.102;2023-02-15T01:45:18;41.33;;;18.87;;
15697;SDS011;7949;48.726;9.102;2023-02-15T01:47:50;37.50;;;18.37;;
15697;SDS011;7949;48.726;9.102;2023-02-15T01:50:21;40.00;;;18.23;;
15697;SDS011;7949;48.726;9.102;2023-02-15T01:52:51;38.60;;;18.53;;
15697;SDS011;7949;48.726;9.102;2023-02-15T01:55:21;41.93;;;19.20;;
15697;SDS011;7949;48.726;9.102;2023-02-15T01:57:51;41.50;;;18.37;;
15697;SDS011;7949;48.726;9.102;2023-02-15T02:00:18;40.03;;;18.73;;
15697;SDS011;7949;48.726;9.102;2023-02-15T02:02:46;39.50;;;18.23;;
15697;SDS011;7949;48.726;9.102;2023-02-15T02:05:18;39.60;;;18.40;;
15697;SDS011;7949;48.726;9.102;2023-02-15T02:07:45;41.97;;;19.57;;
15697;SDS011;7949;48.726;9.102;2023-02-15T02:10:19;36.60;;;17.53;;
15697;SDS011;7949;48.726;9.102;2023-02-15T02:12:49;38.50;;;17.30;;
15697;SDS011;7949;48.726;9.102;2023-02-15T02:15:18;35.37;;;17.40;;
15697;SDS011;7949;48.726;9.102;2023-02-15T02:18:02;36.10;;;17.07;;
15697;SDS011;7949;48.726;9.102;2023-02-15T02:20:43;42.27;;;18.17;;
15697;SDS011;7949;48.726;9.102;2023-02-15T02:32:45;38.77;;;17.57;;
15697;SDS011;7949;48.726;9.102;2023-02-15T02:35:29;40.70;;;18.80;;
15697;SDS011;7949;48.726;9.102;2023-02-15T02:38:03;42.77;;;19.97;;
15697;SDS011;7949;48.726;9.102;2023-02-15T02:40:36;39.17;;;19.23;;
15697;SDS011;7949;48.726;9.102;2023-02-15T02:43:15;40.37;;;19.90;;
15697;SDS011;7949;48.726;9.102;2023-02-15T02:45:48;43.10;;;19.00;;
15697;SDS011;7949;48.726;9.102;2023-02-15T02:48:21;40.63;;;18.07;;
15697;SDS011;7949;48.726;9.102;2023-02-15T02:50:52;37.60;;;18.13;;
15697;SDS011;7949;48.726;9.102;2023-02-15T02:53:18;38.43;;;18.30;;
15697;SDS011;7949;48.726;9.102;2023-02-15T02:55:46;38.50;;;18.73;;
15697;SDS011;7949;48.726;9.102;2023-02-15T02:58:16;42.10;;;18.13;;
15697;SDS011;7949;48.726;9.102;2023-02-15T03:00:48;42.20;;;18.47;;
15697;SDS011;7949;48.726;9.102;2023-02-15T03:03:20;38.30;;;18.60;;
15697;SDS011;7949;48.726;9.102;2023-02-15T03:05:50;42.43;;;18.67;;
15697;SDS011;7949;48.726;9.102;2023-02-15T03:08:20;38.10;;;18.07;;
15697;SDS011;7949;48.726;9.102;2023-02-15T03:10:53;38.03;;;18.30;;
15697;SDS011;7949;48.726;9.102;2023-02-15T03:13:23;37.73;;;17.83;;
15697;SDS011;7949;48.726;9.102;2023-02-15T03:15:50;35.20;;;17.43;;
15697;SDS011;7949;48.726;9.102;2023-02-15T03:18:38;38.97;;;18.40;;
15697;SDS011;7949;48.726;9.102;2023-02-15T03:21:07;35.33;;;17.80;;
15697;SDS011;7949;48.726;9.102;2023-02-15T03:23:46;35.83;;;17.63;;
15697;SDS011;7949;48.726;9.102;2023-02-15T03:26:17;33.17;;;17.90;;
15697;SDS011;7949;48.726;9.102;2023-02-15T03:28:45;40.07;;;17.97;;
15697;SDS011;7949;48.726;9.102;2023-02-15T03:31:16;40.37;;;18.73;;
15697;SDS011;7949;48.726;9.102;2023-02-15T03:33:49;36.00;;;16.67;;
15697;SDS011;7949;48.726;9.102;2023-02-15T03:36:18;36.10;;;17.33;;
15697;SDS011;7949;48.726;9.102;2023-02-15T03:38:49;36.60;;;17.40;;
15697;SDS011;7949;48.726;9.102;2023-02-15T03:41:24;40.07;;;17.57;;
15697;SDS011;7949;48.726;9.102;2023-02-15T03:43:56;34.97;;;17.40;;
15697;SDS011;7949;48.726;9.102;2023-02-15T03:46:26;35.73;;;18.03;;
15697;SDS011;7949;48.726;9.102;2023-02-15T03:49:00;36.17;;;17.43;;
15697;SDS011;7949;48.726;9.102;2023-02-15T03:51:31;50.33;;;19.57;;
15697;SDS011;7949;48.726;9.102;2023-02-15T03:54:03;41.67;;;18.43;;
15697;SDS011;7949;48.726;9.102;2023-02-15T03:56:33;34.47;;;15.90;;
15697;SDS011;7949;48.726;9.102;2023-02-15T03:59:02;36.90;;;17.73;;
15697;SDS011;7949;48.726;9.102;2023-02-15T04:01:48;44.60;;;17.10;;
15697;SDS011;7949;48.726;9.102;2023-02-15T04:04:26;33.73;;;16.80;;
15697;SDS011;7949;48.726;9.102;2023-02-15T04:06:58;28.93;;;16.53;;
15697;SDS011;7949;48.726;9.102;2023-02-15T04:09:25;35.87;;;17.40;;
15697;SDS011;7949;48.726;9.102;2023-02-15T04:12:09;34.23;;;17.17;;
15697;SDS011;7949;48.726;9.102;2023-02-15T04:14:36;35.80;;;16.90;;
15697;SDS011;7949;48.726;9.102;2023-02-15T04:17:20;33.20;;;16.03;;
15697;SDS011;7949;48.726;9.102;2023-02-15T04:19:49;34.03;;;15.57;;
15697;SDS011;7949;48.726;9.102;2023-02-15T04:22:33;32.67;;;16.33;;
15697;SDS011;7949;48.726;9.102;2023-02-15T04:25:17;34.03;;;17.43;;
15697;SDS011;7949;48.726;9.102;2023-02-15T04:27:45;35.83;;;17.60;;
15697;SDS011;7949;48.726;9.102;2023-02-15T04:30:16;35.00;;;16.80;;
15697;SDS011;7949;48.726;9.102;2023-02-15T04:32:44;35.17;;;16.00;;
15697;SDS011;7949;48.726;9.102;2023-02-15T04:35:13;38.27;;;18.13;;
15697;SDS011;7949;48.726;9.102;2023-02-15T04:37:40;40.73;;;17.00;;
15697;SDS011;7949;48.726;9.102;2023-02-15T04:40:08;37.50;;;17.23;;
15697;SDS011;7949;48.726;9.102;2023-02-15T04:42:36;33.80;;;17.07;;
15697;SDS011;7949;48.726;9.102;2023-02-15T04:45:04;38.43;;;16.27;;
15697;SDS011;7949;48.726;9.102;2023-02-15T04:47:31;35.47;;;17.07;;
15697;SDS011;7949;48.726;9.102;2023-02-15T04:49:58;32.93;;;16.40;;
15697;SDS011;7949;48.726;9.102;2023-02-15T04:52:26;41.37;;;18.43;;
15697;SDS011;7949;48.726;9.102;2023-02-15T04:54:53;37.53;;;17.50;;
15697;SDS011;7949;48.726;9.102;2023-02-15T04:57:20;37.30;;;16.87;;
15697;SDS011;7949;48.726;9.102;2023-02-15T04:59:46;34.90;;;17.07;;
15697;SDS011;7949;48.726;9.102;2023-02-15T05:02:13;37.13;;;17.43;;
15697;SDS011;7949;48.726;9.102;2023-02-15T05:04:40;32.70;;;16.70;;
15697;SDS011;7949;48.726;9.102;2023-02-15T05:07:07;37.50;;;16.50;;
15697;SDS011;7949;48.726;9.102;2023-02-15T05:09:35;29.83;;;15.67;;
15697;SDS011;7949;48.726;9.102;2023-02-15T05:12:01;40.20;;;17.73;;
15697;SDS011;7949;48.726;9.102;2023-02-15T05:14:28;40.97;;;17.70;;
15697;SDS011;7949;48.726;9.102;2023-02-15T05:16:55;39.17;;;18.90;;
15697;SDS011;7949;48.726;9.102;2023-02-15T05:19:25;38.33;;;16.90;;
15697;SDS011;7949;48.726;9.102;2023-02-15T05:21:52;37.23;;;16.93;;
15697;SDS011;7949;48.726;9.102;2023-02-15T05:24:19;33.57;;;16.63;;
15697;SDS011;7949;48.726;9.102;2023-02-15T05:27:13;35.90;;;16.63;;
15697;SDS011;7949;48.726;9.102;2023-02-15T05:29:57;41.27;;;17.17;;
15697;SDS011;7949;48.726;9.102;2023-02-15T05:32:24;36.10;;;16.27;;
15697;SDS011;7949;48.726;9.102;2023-02-15T05:34:51;37.60;;;16.40;;
15697;SDS011;7949;48.726;9.102;2023-02-15T05:37:17;38.63;;;18.27;;
15697;SDS011;7949;48.726;9.102;2023-02-15T05:39:44;35.40;;;17.77;;
15697;SDS011;7949;48.726;9.102;2023-02-15T05:42:12;40.40;;;18.77;;
15697;SDS011;7949;48.726;9.102;2023-02-15T05:44:39;42.83;;;18.57;;
15697;SDS011;7949;48.726;9.102;2023-02-15T05:47:06;39.37;;;18.33;;
15697;SDS011;7949;48.726;9.102;2023-02-15T05:49:33;40.33;;;19.10;;
15697;SDS011;7949;48.726;9.102;2023-02-15T05:52:00;36.50;;;17.43;;
15697;SDS011;7949;48.726;9.102;2023-02-15T05:54:27;33.93;;;16.93;;
15697;SDS011;7949;48.726;9.102;2023-02-15T05:56:54;39.93;;;17.83;;
15697;SDS011;7949;48.726;9.102;2023-02-15T05:59:22;35.57;;;17.33;;
15697;SDS011;7949;48.726;9.102;2023-02-15T06:01:49;34.17;;;16.73;;
15697;SDS011;7949;48.726;9.102;2023-02-15T06:04:16;32.10;;;16.80;;
15697;SDS011;7949;48.726;9.102;2023-02-15T06:06:43;36.40;;;17.30;;
15697;SDS011;7949;48.726;9.102;2023-02-15T06:09:10;32.20;;;15.93;;
15697;SDS011;7949;48.726;9.102;2023-02-15T06:11:37;37.27;;;18.73;;
15697;SDS011;7949;48.726;9.102;2023-02-15T06:14:04;37.40;;;17.93;;
15697;SDS011;7949;48.726;9.102;2023-02-15T06:16:32;36.37;;;18.17;;
15697;SDS011;7949;48.726;9.102;2023-02-15T06:18:59;33.77;;;16.53;;
15697;SDS011;7949;48.726;9.102;2023-02-15T06:21:26;35.30;;;16.57;;
15697;SDS011;7949;48.726;9.102;2023-02-15T06:23:53;33.97;;;16.40;;
15697;SDS011;7949;48.726;9.102;2023-02-15T06:26:20;34.37;;;16.23;;
15697;SDS011;7949;48.726;9.102;2023-02-15T06:28:47;29.87;;;15.33;;
15697;SDS011;7949;48.726;9.102;2023-02-15T06:31:14;34.93;;;16.23;;
15697;SDS011;7949;48.726;9.102;2023-02-15T06:33:42;33.57;;;16.47;;
15697;SDS011;7949;48.726;9.102;2023-02-15T06:36:09;33.53;;;16.63;;
15697;SDS011;7949;48.726;9.102;2023-02-15T06:38:36;34.73;;;17.10;;
15697;SDS011;7949;48.726;9.102;2023-02-15T06:41:02;37.27;;;17.27;;
15697;SDS011;7949;48.726;9.102;2023-02-15T06:43:31;38.23;;;17.90;;
15697;SDS011;7949;48.726;9.102;2023-02-15T06:45:59;36.97;;;17.97;;
15697;SDS011;7949;48.726;9.102;2023-02-15T06:48:26;34.60;;;17.97;;
15697;SDS011;7949;48.726;9.102;2023-02-15T06:50:54;38.10;;;18.40;;
15697;SDS011;7949;48.726;9.102;2023-02-15T06:53:21;34.83;;;16.87;;
15697;SDS011;7949;48.726;9.102;2023-02-15T06:55:47;34.77;;;17.37;;
15697;SDS011;7949;48.726;9.102;2023-02-15T06:58:14;33.80;;;17.53;;
15697;SDS011;7949;48.726;9.102;2023-02-15T07:00:41;38.47;;;17.93;;
15697;SDS011;7949;48.726;9.102;2023-02-15T07:03:08;45.87;;;19.10;;
15697;SDS011;7949;48.726;9.102;2023-02-15T07:05:35;41.73;;;18.87;;
15697;SDS011;7949;48.726;9.102;2023-02-15T07:08:03;39.37;;;18.53;;
15697;SDS011;7949;48.726;9.102;2023-02-15T07:10:30;39.80;;;18.97;;
15697;SDS011;7949;48.726;9.102;2023-02-15T07:12:57;43.23;;;18.03;;
15697;SDS011;7949;48.726;9.102;2023-02-15T07:15:23;41.33;;;18.90;;
15697;SDS011;7949;48.726;9.102;2023-02-15T07:17:49;37.60;;;17.17;;
15697;SDS011;7949;48.726;9.102;2023-02-15T07:20:18;38.80;;;18.90;;
15697;SDS011;7949;48.726;9.102;2023-02-15T07:22:46;35.70;;;18.20;;
15697;SDS011;7949;48.726;9.102;2023-02-15T07:25:15;41.27;;;20.00;;
15697;SDS011;7949;48.726;9.102;2023-02-15T07:27:43;49.13;;;21.40;;
15697;SDS011;7949;48.726;9.102;2023-02-15T07:30:11;53.53;;;23.53;;
15697;SDS011;7949;48.726;9.102;2023-02-15T07:32:40;50.43;;;21.93;;
15697;SDS011;7949;48.726;9.102;2023-02-15T07:35:21;45.57;;;20.83;;
15697;SDS011;7949;48.726;9.102;2023-02-15T07:37:48;43.40;;;20.70;;
15697;SDS011;7949;48.726;9.102;2023-02-15T07:40:16;45.53;;;21.27;;
15697;SDS011;7949;48.726;9.102;2023-02-15T07:42:43;38.63;;;20.33;;
15697;SDS011;7949;48.726;9.102;2023-02-15T07:45:10;42.20;;;20.73;;
15697;SDS011;7949;48.726;9.102;2023-02-15T07:47:37;42.87;;;18.83;;
15697;SDS011;7949;48.726;9.102;2023-02-15T07:50:04;41.90;;;20.13;;
15697;SDS011;7949;48.726;9.102;2023-02-15T07:52:34;45.33;;;21.83;;
15697;SDS011;7949;48.726;9.102;2023-02-15T07:55:01;37.97;;;19.77;;
15697;SDS011;7949;48.726;9.102;2023-02-15T07:57:30;49.60;;;22.33;;
15697;SDS011;7949;48.726;9.102;2023-02-15T07:59:57;47.07;;;23.17;;
15697;SDS011;7949;48.726;9.102;2023-02-15T08:02:24;47.60;;;21.97;;
15697;SDS011;7949;48.726;9.102;2023-02-15T08:04:51;45.13;;;23.07;;
15697;SDS011;7949;48.726;9.102;2023-02-15T08:07:18;39.00;;;20.47;;
15697;SDS011;7949;48.726;9.102;2023-02-15T08:09:44;42.00;;;22.07;;
15697;SDS011;7949;48.726;9.102;2023-02-15T08:12:11;48.27;;;22.63;;
15697;SDS011;7949;48.726;9.102;2023-02-15T08:14:40;42.47;;;21.30;;
15697;SDS011;7949;48.726;9.102;2023-02-15T08:17:07;47.63;;;24.17;;
15697;SDS011;7949;48.726;9.102;2023-02-15T08:19:33;59.10;;;24.13;;
15697;SDS011;7949;48.726;9.102;2023-02-15T08:22:01;43.33;;;22.87;;
15697;SDS011;7949;48.726;9.102;2023-02-15T08:24:30;59.53;;;25.37;;
15697;SDS011;7949;48.726;9.102;2023-02-15T08:27:02;56.20;;;25.00;;
15697;SDS011;7949;48.726;9.102;2023-02-15T08:29:30;46.73;;;24.20;;
15697;SDS011;7949;48.726;9.102;2023-02-15T08:31:59;56.07;;;24.10;;
15697;SDS011;7949;48.726;9.102;2023-02-15T08:34:28;48.87;;;23.97;;
15697;SDS011;7949;48.726;9.102;2023-02-15T08:36:56;47.07;;;25.23;;
15697;SDS011;7949;48.726;9.102;2023-02-15T08:39:23;47.67;;;23.53;;
15697;SDS011;7949;48.726;9.102;2023-02-15T08:41:50;47.27;;;22.33;;
15697;SDS011;7949;48.726;9.102;2023-02-15T08:44:17;52.17;;;23.90;;
15697;SDS011;7949;48.726;9.102;2023-02-15T08:46:46;52.67;;;24.47;;
15697;SDS011;7949;48.726;9.102;2023-02-15T08:49:16;41.20;;;23.40;;
15697;SDS011;7949;48.726;9.102;2023-02-15T08:51:45;47.87;;;23.73;;
15697;SDS011;7949;48.726;9.102;2023-02-15T08:54:13;51.60;;;24.50;;
15697;SDS011;7949;48.726;9.102;2023-02-15T08:56:41;40.67;;;22.43;;
15697;SDS011;7949;48.726;9.102;2023-02-15T08:59:11;41.50;;;22.23;;
15697;SDS011;7949;48.726;9.102;2023-02-15T09:01:39;45.87;;;22.13;;
15697;SDS011;7949;48.726;9.102;2023-02-15T09:04:06;43.00;;;23.10;;
15697;SDS011;7949;48.726;9.102;2023-02-15T09:06:36;40.40;;;22.57;;
15697;SDS011;7949;48.726;9.102;2023-02-15T09:09:04;47.60;;;21.93;;
15697;SDS011;7949;48.726;9.102;2023-02-15T09:11:33;43.43;;;22.20;;
15697;SDS011;7949;48.726;9.102;2023-02-15T09:14:02;39.60;;;21.73;;
15697;SDS011;7949;48.726;9.102;2023-02-15T09:16:31;41.70;;;21.37;;
15697;SDS011;7949;48.726;9.102;2023-02-15T09:19:00;41.57;;;21.70;;
15697;SDS011;7949;48.726;9.102;2023-02-15T09:21:27;42.53;;;21.53;;
15697;SDS011;7949;48.726;9.102;2023-02-15T09:23:57;39.47;;;21.70;;
15697;SDS011;7949;48.726;9.102;2023-02-15T09:26:25;39.07;;;21.30;;
15697;SDS011;7949;48.726;9.102;2023-02-15T09:28:53;42.23;;;21.73;;
15697;SDS011;7949;48.726;9.102;2023-02-15T09:31:22;36.03;;;19.90;;
15697;SDS011;7949;48.726;9.102;2023-02-15T09:33:50;45.13;;;21.07;;
15697;SDS011;7949;48.726;9.102;2023-02-15T09:36:17;40.30;;;20.37;;
15697;SDS011;7949;48.726;9.102;2023-02-15T09:38:46;40.10;;;19.70;;
15697;SDS011;7949;48.726;9.102;2023-02-15T09:41:23;39.80;;;20.60;;
15697;SDS011;7949;48.726;9.102;2023-02-15T09:44:11;34.37;;;18.53;;
15697;SDS011;7949;48.726;9.102;2023-02-15T09:46:57;37.40;;;18.67;;
15697;SDS011;7949;48.726;9.102;2023-02-15T09:49:38;31.03;;;18.40;;
15697;SDS011;7949;48.726;9.102;2023-02-15T09:52:17;32.87;;;18.67;;
15697;SDS011;7949;48.726;9.102;2023-02-15T09:55:00;31.17;;;17.37;;
15697;SDS011;7949;48.726;9.102;2023-02-15T09:57:44;30.10;;;17.30;;
15697;SDS011;7949;48.726;9.102;2023-02-15T10:00:20;32.47;;;17.13;;
15697;SDS011;7949;48.726;9.102;2023-02-15T10:03:00;38.20;;;17.33;;
15697;SDS011;7949;48.726;9.102;2023-02-15T10:05:41;31.63;;;16.73;;
15697;SDS011;7949;48.726;9.102;2023-02-15T10:11:23;34.57;;;16.00;;
15697;SDS011;7949;48.726;9.102;2023-02-15T10:14:15;25.27;;;15.70;;
15697;SDS011;7949;48.726;9.102;2023-02-15T10:17:04;30.37;;;14.23;;
15697;SDS011;7949;48.726;9.102;2023-02-15T10:19:40;27.40;;;15.43;;
15697;SDS011;7949;48.726;9.102;2023-02-15T10:22:16;27.70;;;16.73;;
15697;SDS011;7949;48.726;9.102;2023-02-15T10:24:55;31.37;;;16.60;;
15697;SDS011;7949;48.726;9.102;2023-02-15T10:27:38;32.70;;;15.93;;
15697;SDS011;7949;48.726;9.102;2023-02-15T10:32:45;28.30;;;16.33;;
15697;SDS011;7949;48.726;9.102;2023-02-15T10:35:25;25.60;;;15.90;;
15697;SDS011;7949;48.726;9.102;2023-02-15T10:38:03;31.10;;;16.03;;
15697;SDS011;7949;48.726;9.102;2023-02-15T10:40:41;32.17;;;15.93;;
15697;SDS011;7949;48.726;9.102;2023-02-15T10:43:25;29.10;;;15.60;;
15697;SDS011;7949;48.726;9.102;2023-02-15T10:46:06;35.30;;;16.93;;
15697;SDS011;7949;48.726;9.102;2023-02-15T10:48:54;28.03;;;16.13;;
15697;SDS011;7949;48.726;9.102;2023-02-15T10:51:36;31.17;;;15.40;;
15697;SDS011;7949;48.726;9.102;2023-02-15T10:54:13;33.90;;;16.17;;
15697;SDS011;7949;48.726;9.102;2023-02-15T10:56:51;28.40;;;15.77;;
15697;SDS011;7949;48.726;9.102;2023-02-15T10:59:35;32.07;;;15.03;;
15697;SDS011;7949;48.726;9.102;2023-02-15T11:02:13;31.40;;;14.63;;
15697;SDS011;7949;48.726;9.102;2023-02-15T11:04:53;26.80;;;15.33;;
15697;SDS011;7949;48.726;9.102;2023-02-15T11:07:29;27.87;;;15.77;;
15697;SDS011;7949;48.726;9.102;2023-02-15T11:10:05;30.00;;;14.60;;
15697;SDS011;7949;48.726;9.102;2023-02-15T11:12:48;27.77;;;15.13;;
15697;SDS011;7949;48.726;9.102;2023-02-15T11:15:17;25.03;;;14.37;;
15697;SDS011;7949;48.726;9.102;2023-02-15T11:17:55;28.13;;;14.53;;
15697;SDS011;7949;48.726;9.102;2023-02-15T11:20:27;33.43;;;15.20;;
15697;SDS011;7949;48.726;9.102;2023-02-15T11:22:57;24.67;;;13.53;;
15697;SDS011;7949;48.726;9.102;2023-02-15T11:25:28;30.57;;;15.07;;
15697;SDS011;7949;48.726;9.102;2023-02-15T11:27:59;25.17;;;12.73;;
15697;SDS011;7949;48.726;9.102;2023-02-15T11:30:33;28.80;;;14.20;;
15697;SDS011;7949;48.726;9.102;2023-02-15T11:33:12;25.97;;;12.97;;
15697;SDS011;7949;48.726;9.102;2023-02-15T11:35:46;29.47;;;13.63;;
15697;SDS011;7949;48.726;9.102;2023-02-15T11:38:17;22.47;;;13.30;;
15697;SDS011;7949;48.726;9.102;2023-02-15T11:40:48;23.50;;;13.37;;
15697;SDS011;7949;48.726;9.102;2023-02-15T11:43:16;25.97;;;13.43;;
15697;SDS011;7949;48.726;9.102;2023-02-15T11:45:49;31.43;;;14.17;;
15697;SDS011;7949;48.726;9.102;2023-02-15T11:48:17;28.60;;;13.23;;
15697;SDS011;7949;48.726;9.102;2023-02-15T11:50:44;23.00;;;12.57;;
15697;SDS011;7949;48.726;9.102;2023-02-15T11:53:12;25.60;;;12.80;;
15697;SDS011;7949;48.726;9.102;2023-02-15T11:55:41;22.50;;;12.33;;
15697;SDS011;7949;48.726;9.102;2023-02-15T12:00:55;23.20;;;12.93;;
15697;SDS011;7949;48.726;9.102;2023-02-15T12:03:29;26.03;;;13.07;;
15697;SDS011;7949;48.726;9.102;2023-02-15T12:06:06;24.37;;;12.90;;
15697;SDS011;7949;48.726;9.102;2023-02-15T12:08:42;25.83;;;13.93;;
15697;SDS011;7949;48.726;9.102;2023-02-15T12:11:15;20.30;;;12.67;;
15697;SDS011;7949;48.726;9.102;2023-02-15T12:13:55;24.33;;;13.97;;
15697;SDS011;7949;48.726;9.102;2023-02-15T12:16:23;19.80;;;13.33;;
15697;SDS011;7949;48.726;9.102;2023-02-15T12:18:53;23.53;;;14.83;;
15697;SDS011;7949;48.726;9.102;2023-02-15T12:21:26;22.17;;;12.70;;
15697;SDS011;7949;48.726;9.102;2023-02-15T12:23:56;26.50;;;14.20;;
15697;SDS011;7949;48.726;9.102;2023-02-15T12:26:26;25.07;;;15.07;;
15697;SDS011;7949;48.726;9.102;2023-02-15T12:28:55;25.57;;;16.07;;
15697;SDS011;7949;48.726;9.102;2023-02-15T12:31:27;24.93;;;15.60;;
15697;SDS011;7949;48.726;9.102;2023-02-15T12:34:01;26.60;;;16.03;;
15697;SDS011;7949;48.726;9.102;2023-02-15T12:36:40;24.90;;;15.33;;
15697;SDS011;7949;48.726;9.102;2023-02-15T12:39:22;24.97;;;16.10;;
15697;SDS011;7949;48.726;9.102;2023-02-15T12:42:01;27.03;;;15.93;;
15697;SDS011;7949;48.726;9.102;2023-02-15T12:44:31;29.53;;;16.47;;
15697;SDS011;7949;48.726;9.102;2023-02-15T12:47:00;27.77;;;15.33;;
15697;SDS011;7949;48.726;9.102;2023-02-15T12:49:30;35.00;;;16.70;;
15697;SDS011;7949;48.726;9.102;2023-02-15T12:51:59;28.30;;;15.80;;
15697;SDS011;7949;48.726;9.102;2023-02-15T12:54:31;30.23;;;16.50;;
15697;SDS011;7949;48.726;9.102;2023-02-15T12:57:12;26.63;;;16.10;;
15697;SDS011;7949;48.726;9.102;2023-02-15T12:59:49;29.67;;;15.80;;
15697;SDS011;7949;48.726;9.102;2023-02-15T13:02:19;24.83;;;14.60;;
15697;SDS011;7949;48.726;9.102;2023-02-15T13:04:50;24.67;;;16.13;;
15697;SDS011;7949;48.726;9.102;2023-02-15T13:07:18;30.87;;;16.77;;
15697;SDS011;7949;48.726;9.102;2023-02-15T13:09:46;23.90;;;15.30;;
15697;SDS011;7949;48.726;9.102;2023-02-15T13:12:18;29.07;;;16.93;;
15697;SDS011;7949;48.726;9.102;2023-02-15T13:14:51;32.10;;;16.00;;
15697;SDS011;7949;48.726;9.102;2023-02-15T13:17:21;34.23;;;15.97;;
15697;SDS011;7949;48.726;9.102;2023-02-15T13:19:56;33.50;;;15.77;;
15697;SDS011;7949;48.726;9.102;2023-02-15T13:22:27;26.07;;;15.87;;
15697;SDS011;7949;48.726;9.102;2023-02-15T13:25:01;31.87;;;15.27;;
15697;SDS011;7949;48.726;9.102;2023-02-15T13:27:34;25.83;;;15.97;;
15697;SDS011;7949;48.726;9.102;2023-02-15T13:30:10;32.00;;;14.83;;
15697;SDS011;7949;48.726;9.102;2023-02-15T13:32:44;27.77;;;15.63;;
15697;SDS011;7949;48.726;9.102;2023-02-15T13:35:16;25.77;;;16.10;;
15697;SDS011;7949;48.726;9.102;2023-02-15T13:38:00;30.90;;;15.93;;
15697;SDS011;7949;48.726;9.102;2023-02-15T13:40:34;24.60;;;14.23;;
15697;SDS011;7949;48.726;9.102;2023-02-15T13:43:11;23.83;;;14.03;;
15697;SDS011;7949;48.726;9.102;2023-02-15T13:45:55;26.43;;;15.23;;
15697;SDS011;7949;48.726;9.102;2023-02-15T13:48:31;25.17;;;15.43;;
15697;SDS011;7949;48.726;9.102;2023-02-15T13:51:09;21.87;;;12.37;;
15697;SDS011;7949;48.726;9.102;2023-02-15T13:53:53;26.90;;;14.60;;
15697;SDS011;7949;48.726;9.102;2023-02-15T13:56:43;28.40;;;15.13;;
15697;SDS011;7949;48.726;9.102;2023-02-15T13:59:26;21.03;;;13.63;;
15697;SDS011;7949;48.726;9.102;2023-02-15T14:02:23;30.23;;;13.63;;
15697;SDS011;7949;48.726;9.102;2023-02-15T14:08:13;32.67;;;13.60;;
15697;SDS011;7949;48.726;9.102;2023-02-15T14:10:53;30.93;;;15.10;;
15697;SDS011;7949;48.726;9.102;2023-02-15T14:13:38;28.70;;;14.87;;
15697;SDS011;7949;48.726;9.102;2023-02-15T14:16:20;22.67;;;12.53;;
15697;SDS011;7949;48.726;9.102;2023-02-15T14:18:59;22.23;;;12.97;;
15697;SDS011;7949;48.726;9.102;2023-02-15T14:21:36;27.63;;;13.80;;
15697;SDS011;7949;48.726;9.102;2023-02-15T14:24:15;34.43;;;13.00;;
15697;SDS011;7949;48.726;9.102;2023-02-15T14:26:52;35.50;;;12.43;;
15697;SDS011;7949;48.726;9.102;2023-02-15T14:29:27;23.57;;;12.37;;
15697;SDS011;7949;48.726;9.102;2023-02-15T14:32:06;20.93;;;12.37;;
15697;SDS011;7949;48.726;9.102;2023-02-15T14:34:45;17.73;;;12.03;;
15697;SDS011;7949;48.726;9.102;2023-02-15T14:37:16;22.27;;;13.00;;
15697;SDS011;7949;48.726;9.102;2023-02-15T14:39:51;32.13;;;13.37;;
15697;SDS011;7949;48.726;9.102;2023-02-15T14:42:40;24.20;;;12.03;;
15697;SDS011;7949;48.726;9.102;2023-02-15T14:45:17;23.07;;;11.60;;
15697;SDS011;7949;48.726;9.102;2023-02-15T14:47:48;32.83;;;13.13;;
15697;SDS011;7949;48.726;9.102;2023-02-15T14:53:23;32.83;;;12.37;;
15697;SDS011;7949;48.726;9.102;2023-02-15T14:56:15;26.57;;;12.10;;
15697;SDS011;7949;48.726;9.102;2023-02-15T14:58:55;21.63;;;11.73;;
15697;SDS011;7949;48.726;9.102;2023-02-15T15:01:34;21.40;;;10.73;;
15697;SDS011;7949;48.726;9.102;2023-02-15T15:04:04;19.57;;;11.13;;
15697;SDS011;7949;48.726;9.102;2023-02-15T15:06:34;21.63;;;10.53;;
15697;SDS011;7949;48.726;9.102;2023-02-15T15:09:09;25.03;;;10.47;;
15697;SDS011;7949;48.726;9.102;2023-02-15T15:11:44;20.50;;;11.70;;
15697;SDS011;7949;48.726;9.102;2023-02-15T15:17:09;19.97;;;11.63;;
15697;SDS011;7949;48.726;9.102;2023-02-15T15:22:36;21.47;;;11.43;;
15697;SDS011;7949;48.726;9.102;2023-02-15T15:25:04;21.33;;;11.43;;
15697;SDS011;7949;48.726;9.102;2023-02-15T15:27:40;22.27;;;12.50;;
15697;SDS011;7949;48.726;9.102;2023-02-15T15:33:36;26.83;;;13.17;;